createdAt,value
2022-08-19T00:00:20.475Z,17.17
2022-08-19T00:01:31.186Z,17.52
2022-08-19T00:02:33.177Z,17.88
2022-08-19T00:03:36.520Z,17.35
2022-08-19T00:04:41.101Z,17.83
2022-08-19T00:05:44.166Z,18.50
2022-08-19T00:06:47.714Z,17.05
2022-08-19T00:07:52.099Z,17.33
2022-08-19T00:08:54.179Z,18.02
2022-08-19T00:09:57.230Z,18.70
2022-08-19T00:11:00.741Z,17.42
2022-08-19T00:12:05.016Z,17.98
2022-08-19T00:13:07.113Z,18.58
2022-08-19T00:14:12.981Z,17.55
2022-08-19T00:15:18.175Z,17.85
2022-08-19T00:16:25.375Z,17.48
2022-08-19T00:17:28.729Z,17.63
2022-08-19T00:18:32.883Z,18.55
2022-08-19T00:19:35.850Z,17.88
2022-08-19T00:20:41.284Z,18.30
2022-08-19T00:21:43.294Z,17.52
2022-08-19T00:22:47.305Z,18.02
2022-08-19T00:23:49.367Z,17.58
2022-08-19T00:24:52.470Z,17.17
2022-08-19T00:25:54.622Z,17.80
2022-08-19T00:26:58.414Z,17.90
2022-08-19T00:28:22.202Z,17.88
2022-08-19T00:29:25.925Z,17.67
2022-08-19T00:30:29.427Z,17.02
2022-08-19T00:31:32.150Z,17.50
2022-08-19T00:32:35.850Z,17.52
2022-08-19T00:33:37.911Z,17.80
2022-08-19T00:34:41.051Z,16.17
2022-08-19T00:35:44.433Z,18.25
2022-08-19T00:36:47.975Z,16.08
2022-08-19T00:37:50.694Z,16.38
2022-08-19T00:38:54.213Z,16.83
2022-08-19T00:39:56.920Z,18.63
2022-08-19T00:41:00.195Z,17.70
2022-08-19T00:42:02.318Z,18.73
2022-08-19T00:43:10.897Z,16.90
2022-08-19T00:44:16.037Z,16.20
2022-08-19T00:45:22.036Z,15.52
2022-08-19T00:46:24.022Z,17.77
2022-08-19T00:47:27.049Z,17.52
2022-08-19T00:48:29.725Z,16.83
2022-08-19T00:49:37.259Z,15.73
2022-08-19T00:50:52.296Z,15.68
2022-08-19T00:52:02.841Z,15.93
2022-08-19T00:53:05.261Z,17.38
2022-08-19T00:54:08.354Z,17.52
2022-08-19T00:55:12.807Z,16.85
2022-08-19T00:56:16.543Z,16.52
2022-08-19T00:57:23.258Z,17.80
2022-08-19T00:58:32.082Z,17.15
2022-08-19T01:00:00.326Z,16.10
2022-08-19T01:01:01.581Z,17.52
2022-08-19T01:02:04.425Z,16.88
2022-08-19T01:03:10.327Z,16.42
2022-08-19T01:04:12.465Z,16.83
2022-08-19T01:05:19.433Z,16.50
2022-08-19T01:06:22.050Z,16.95
2022-08-19T01:07:26.883Z,17.02
2022-08-19T01:08:29.257Z,15.75
2022-08-19T01:09:32.934Z,15.65
2022-08-19T01:10:40.289Z,16.23
2022-08-19T01:11:45.152Z,16.52
2022-08-19T01:12:48.093Z,15.82
2022-08-19T01:13:54.142Z,15.43
2022-08-19T01:14:57.158Z,15.00
2022-08-19T01:16:07.947Z,16.45
2022-08-19T01:17:12.274Z,15.27
2022-08-19T01:18:17.282Z,15.88
2022-08-19T01:19:26.462Z,16.80
2022-08-19T01:20:29.618Z,16.23
2022-08-19T01:21:35.498Z,18.70
2022-08-19T01:22:42.829Z,16.85
2022-08-19T01:23:45.191Z,15.40
2022-08-19T01:24:49.720Z,16.08
2022-08-19T01:25:55.346Z,16.70
2022-08-19T01:26:58.599Z,15.43
2022-08-19T01:28:09.237Z,16.63
2022-08-19T01:29:15.070Z,17.25
2022-08-19T01:30:21.137Z,16.55
2022-08-19T01:31:26.734Z,15.98
2022-08-19T01:32:38.968Z,18.58
2022-08-19T01:33:41.939Z,17.25
2022-08-19T01:34:47.995Z,17.10
2022-08-19T01:35:51.390Z,16.33
2022-08-19T01:36:53.405Z,17.63
2022-08-19T01:38:01.800Z,15.10
2022-08-19T01:39:08.979Z,17.25
2022-08-19T01:40:13.277Z,17.90
2022-08-19T01:41:15.931Z,16.23
2022-08-19T01:42:19.103Z,15.30
2022-08-19T01:43:30.134Z,17.48
2022-08-19T01:44:33.158Z,17.70
2022-08-19T01:45:36.589Z,16.05
2022-08-19T01:46:40.699Z,17.60
2022-08-19T01:47:42.851Z,17.70
2022-08-19T01:48:54.725Z,16.48
2022-08-19T01:49:56.836Z,16.25
2022-08-19T01:50:59.802Z,17.75
2022-08-19T01:52:02.621Z,17.17
2022-08-19T01:53:11.274Z,17.23
2022-08-19T01:54:23.270Z,17.67
2022-08-19T01:55:30.702Z,16.92
2022-08-19T01:56:32.846Z,15.98
2022-08-19T01:57:36.038Z,16.88
2022-08-19T01:58:42.230Z,17.45
2022-08-19T01:59:46.838Z,17.02
2022-08-19T02:00:49.646Z,17.13
2022-08-19T02:01:52.654Z,16.88
2022-08-19T02:02:55.309Z,17.08
2022-08-19T02:03:58.506Z,17.25
2022-08-19T02:05:00.581Z,17.67
2022-08-19T02:06:06.126Z,18.20
2022-08-19T02:07:09.196Z,17.83
2022-08-19T02:08:14.150Z,16.80
2022-08-19T02:09:17.488Z,17.20
2022-08-19T02:10:22.708Z,16.33
2022-08-19T02:11:28.454Z,18.35
2022-08-19T02:12:30.564Z,17.70
2022-08-19T02:13:34.558Z,16.95
2022-08-19T02:14:37.590Z,16.90
2022-08-19T02:15:40.817Z,16.20
2022-08-19T02:16:42.817Z,17.25
2022-08-19T02:17:45.782Z,16.30
2022-08-19T02:18:49.398Z,15.65
2022-08-19T02:19:51.469Z,16.85
2022-08-19T02:20:54.881Z,17.50
2022-08-19T02:21:56.836Z,16.48
2022-08-19T02:23:02.241Z,16.88
2022-08-19T02:24:06.514Z,16.10
2022-08-19T02:25:10.807Z,16.95
2022-08-19T02:26:13.398Z,17.40
2022-08-19T02:27:16.481Z,17.17
2022-08-19T02:28:19.105Z,17.35
2022-08-19T02:29:23.038Z,18.05
2022-08-19T02:30:25.761Z,16.70
2022-08-19T02:31:29.850Z,16.02
2022-08-19T02:32:31.959Z,17.23
2022-08-19T02:33:34.938Z,18.08
2022-08-19T02:34:36.924Z,16.50
2022-08-19T02:35:43.372Z,18.00
2022-08-19T02:36:45.410Z,17.35
2022-08-19T02:38:12.502Z,17.08
2022-08-19T02:39:17.030Z,16.60
2022-08-19T02:40:19.227Z,16.60
2022-08-19T02:41:26.639Z,17.58
2022-08-19T02:42:29.122Z,17.15
2022-08-19T02:43:37.899Z,18.08
2022-08-19T02:44:40.620Z,18.42
2022-08-19T02:45:43.690Z,17.02
2022-08-19T02:46:48.002Z,17.02
2022-08-19T02:47:50.960Z,15.88
2022-08-19T02:48:55.074Z,17.52
2022-08-19T02:49:58.106Z,17.48
2022-08-19T02:51:00.387Z,18.65
2022-08-19T02:52:04.131Z,19.38
2022-08-19T02:53:06.615Z,19.02
2022-08-19T02:54:10.861Z,16.95
2022-08-19T02:55:14.256Z,16.83
2022-08-19T02:56:18.040Z,16.40
2022-08-19T02:57:20.021Z,18.42
2022-08-19T02:58:25.135Z,17.13
2022-08-19T02:59:30.705Z,18.77
2022-08-19T03:00:33.696Z,16.83
2022-08-19T03:01:43.498Z,17.55
2022-08-19T03:02:47.861Z,17.30
2022-08-19T03:03:49.886Z,17.77
2022-08-19T03:04:52.953Z,17.27
2022-08-19T03:06:08.253Z,16.92
2022-08-19T03:07:14.562Z,16.00
2022-08-19T03:08:16.658Z,17.30
2022-08-19T03:09:21.006Z,17.95
2022-08-19T03:10:24.424Z,18.10
2022-08-19T03:11:31.293Z,15.90
2022-08-19T03:12:37.638Z,18.05
2022-08-19T03:13:40.596Z,16.23
2022-08-19T03:14:42.725Z,17.60
2022-08-19T03:15:47.879Z,17.42
2022-08-19T03:16:53.654Z,17.98
2022-08-19T03:17:56.641Z,18.02
2022-08-19T03:19:00.941Z,18.27
2022-08-19T03:20:05.360Z,17.25
2022-08-19T03:21:07.518Z,17.83
2022-08-19T03:22:15.492Z,18.27
2022-08-19T03:23:18.357Z,17.35
2022-08-19T03:24:22.577Z,18.35
2022-08-19T03:25:26.787Z,17.73
2022-08-19T03:26:30.410Z,17.50
2022-08-19T03:27:34.741Z,17.42
2022-08-19T03:28:38.262Z,16.63
2022-08-19T03:29:43.998Z,17.48
2022-08-19T03:30:59.069Z,17.30
2022-08-19T03:32:06.898Z,17.17
2022-08-19T03:33:09.822Z,16.58
2022-08-19T03:34:22.379Z,16.08
2022-08-19T03:35:24.402Z,17.13
2022-08-19T03:36:29.679Z,17.65
2022-08-19T03:37:31.708Z,16.38
2022-08-19T03:38:34.781Z,16.40
2022-08-19T03:39:38.004Z,17.67
2022-08-19T03:40:43.299Z,15.90
2022-08-19T03:41:48.548Z,17.45
2022-08-19T03:42:51.627Z,15.75
2022-08-19T03:43:54.897Z,15.75
2022-08-19T03:44:59.297Z,17.83
2022-08-19T03:46:03.497Z,16.88
2022-08-19T03:47:07.245Z,16.98
2022-08-19T03:48:09.477Z,16.33
2022-08-19T03:49:14.340Z,17.73
2022-08-19T03:50:17.279Z,16.95
2022-08-19T03:51:30.697Z,16.58
2022-08-19T03:52:34.153Z,16.65
2022-08-19T03:53:36.557Z,17.13
2022-08-19T03:54:40.274Z,16.48
2022-08-19T03:55:43.668Z,16.52
2022-08-19T03:56:48.306Z,16.48
2022-08-19T03:57:50.317Z,18.63
2022-08-19T03:58:53.504Z,15.27
2022-08-19T03:59:56.486Z,16.52
2022-08-19T04:01:18.658Z,16.25
2022-08-19T04:02:22.378Z,17.13
2022-08-19T04:03:25.241Z,16.67
2022-08-19T04:04:29.714Z,15.68
2022-08-19T04:05:33.805Z,16.30
2022-08-19T04:06:40.027Z,17.98
2022-08-19T04:07:42.144Z,18.60
2022-08-19T04:08:47.085Z,15.48
2022-08-19T04:09:50.044Z,16.65
2022-08-19T04:10:54.450Z,16.67
2022-08-19T04:11:57.890Z,16.98
2022-08-19T04:13:00.841Z,17.42
2022-08-19T04:14:02.933Z,15.50
2022-08-19T04:15:09.298Z,17.13
2022-08-19T04:16:11.654Z,16.50
2022-08-19T04:17:15.005Z,16.45
2022-08-19T04:18:16.974Z,18.75
2022-08-19T04:19:21.360Z,16.40
2022-08-19T04:20:23.341Z,17.20
2022-08-19T04:21:29.228Z,18.38
2022-08-19T04:22:32.524Z,16.90
2022-08-19T04:23:36.357Z,17.73
2022-08-19T04:24:46.013Z,16.95
2022-08-19T04:25:48.076Z,16.15
2022-08-19T04:26:52.759Z,16.20
2022-08-19T04:27:54.746Z,16.38
2022-08-19T04:28:57.773Z,16.73
2022-08-19T04:29:59.762Z,16.40
2022-08-19T04:31:02.746Z,16.85
2022-08-19T04:32:08.512Z,17.13
2022-08-19T04:33:13.117Z,16.90
2022-08-19T04:34:19.169Z,15.32
2022-08-19T04:35:24.808Z,17.88
2022-08-19T04:36:30.707Z,16.58
2022-08-19T04:37:35.219Z,15.52
2022-08-19T04:38:38.849Z,17.05
2022-08-19T04:40:02.237Z,17.70
2022-08-19T04:41:23.818Z,18.05
2022-08-19T04:42:47.830Z,17.08
2022-08-19T04:43:51.402Z,17.15
2022-08-19T04:44:53.394Z,15.60
2022-08-19T04:46:00.839Z,16.50
2022-08-19T04:47:11.389Z,16.98
2022-08-19T04:48:26.508Z,16.95
2022-08-19T04:49:30.954Z,16.13
2022-08-19T04:50:32.964Z,16.55
2022-08-19T04:51:37.808Z,15.45
2022-08-19T04:52:43.668Z,15.90
2022-08-19T04:53:46.938Z,16.85
2022-08-19T04:54:49.166Z,17.75
2022-08-19T04:55:52.505Z,17.60
2022-08-19T04:56:54.762Z,16.77
2022-08-19T04:57:59.139Z,16.60
2022-08-19T04:59:04.257Z,15.52
2022-08-19T05:00:09.284Z,16.80
2022-08-19T05:01:14.077Z,15.75
2022-08-19T05:02:17.066Z,17.33
2022-08-19T05:03:19.403Z,17.40
2022-08-19T05:04:22.805Z,16.90
2022-08-19T05:05:24.987Z,17.70
2022-08-19T05:06:29.473Z,18.77
2022-08-19T05:07:31.810Z,16.55
2022-08-19T05:08:35.907Z,16.60
2022-08-19T05:09:57.730Z,17.25
2022-08-19T05:11:04.196Z,16.38
2022-08-19T05:12:07.148Z,15.32
2022-08-19T05:13:11.910Z,16.77
2022-08-19T05:14:14.023Z,17.23
2022-08-19T05:15:17.094Z,16.60
2022-08-19T05:16:22.549Z,16.27
2022-08-19T05:17:28.393Z,16.70
2022-08-19T05:18:50.713Z,15.70
2022-08-19T05:20:11.300Z,18.15
2022-08-19T05:21:34.170Z,16.35
2022-08-19T05:22:37.388Z,15.95
2022-08-19T05:23:39.729Z,16.00
2022-08-19T05:25:02.486Z,16.05
2022-08-19T05:26:06.277Z,17.70
2022-08-19T05:27:08.348Z,17.23
2022-08-19T05:28:12.769Z,16.70
2022-08-19T05:29:16.536Z,17.67
2022-08-19T05:30:33.439Z,17.05
2022-08-19T05:31:42.821Z,17.42
2022-08-19T05:32:46.081Z,15.05
2022-08-19T05:33:48.423Z,15.27
2022-08-19T05:34:51.885Z,16.52
2022-08-19T05:35:53.944Z,15.73
2022-08-19T05:36:59.590Z,18.13
2022-08-19T05:38:01.876Z,16.50
2022-08-19T05:39:05.947Z,16.48
2022-08-19T05:40:09.274Z,18.85
2022-08-19T05:41:13.900Z,17.85
2022-08-19T05:42:17.519Z,16.58
2022-08-19T05:43:21.000Z,15.75
2022-08-19T05:44:24.080Z,16.55
2022-08-19T05:45:27.244Z,16.25
2022-08-19T05:46:29.639Z,16.67
2022-08-19T05:47:32.993Z,16.42
2022-08-19T05:48:35.623Z,16.65
2022-08-19T05:49:39.156Z,15.35
2022-08-19T05:50:42.527Z,18.17
2022-08-19T05:51:45.558Z,15.85
2022-08-19T05:52:50.721Z,17.38
2022-08-19T05:53:54.079Z,18.10
2022-08-19T05:54:56.839Z,15.60
2022-08-19T05:56:00.117Z,16.75
2022-08-19T05:57:03.110Z,16.58
2022-08-19T05:58:08.518Z,16.58
2022-08-19T05:59:12.589Z,16.50
2022-08-19T06:00:16.081Z,15.30
2022-08-19T06:01:19.260Z,15.45
2022-08-19T06:02:22.675Z,15.45
2022-08-19T06:03:25.104Z,16.50
2022-08-19T06:04:28.101Z,16.08
2022-08-19T06:05:30.604Z,16.60
2022-08-19T06:06:35.049Z,15.88
2022-08-19T06:07:38.663Z,16.33
2022-08-19T06:08:41.184Z,15.38
2022-08-19T06:09:59.337Z,16.27
2022-08-19T06:11:18.057Z,15.32
2022-08-19T06:12:21.050Z,14.90
2022-08-19T06:13:24.710Z,16.08
2022-08-19T06:14:31.282Z,15.57
2022-08-19T06:15:36.438Z,15.07
2022-08-19T06:16:40.293Z,15.05
2022-08-19T06:17:45.241Z,16.75
2022-08-19T06:18:47.362Z,16.98
2022-08-19T06:19:50.950Z,15.88
2022-08-19T06:20:55.729Z,15.20
2022-08-19T06:22:00.883Z,15.57
2022-08-19T06:23:04.669Z,14.75
2022-08-19T06:24:09.185Z,15.77
2022-08-19T06:25:12.386Z,15.43
2022-08-19T06:26:16.345Z,14.85
2022-08-19T06:27:19.559Z,14.40
2022-08-19T06:28:22.069Z,14.93
2022-08-19T06:29:28.576Z,14.98
2022-08-19T06:30:30.589Z,14.75
2022-08-19T06:31:35.365Z,14.23
2022-08-19T06:32:42.348Z,13.95
2022-08-19T06:33:46.837Z,16.08
2022-08-19T06:34:53.109Z,14.82
2022-08-19T06:35:55.080Z,16.10
2022-08-19T06:37:02.122Z,15.20
2022-08-19T06:38:05.961Z,15.98
2022-08-19T06:39:10.678Z,15.15
2022-08-19T06:40:13.537Z,15.27
2022-08-19T06:41:16.774Z,15.25
2022-08-19T06:42:21.639Z,15.15
2022-08-19T06:43:28.201Z,16.80
2022-08-19T06:44:42.850Z,16.40
2022-08-19T06:45:47.821Z,16.15
2022-08-19T06:46:53.596Z,15.77
2022-08-19T06:47:58.534Z,16.33
2022-08-19T06:49:02.153Z,16.80
2022-08-19T06:50:06.034Z,17.75
2022-08-19T06:51:09.132Z,15.90
2022-08-19T06:52:14.150Z,16.65
2022-08-19T06:53:16.347Z,15.85
2022-08-19T06:54:20.329Z,16.27
2022-08-19T06:55:22.609Z,16.80
2022-08-19T06:56:31.929Z,15.90
2022-08-19T06:57:35.740Z,16.63
2022-08-19T06:58:39.359Z,16.02
2022-08-19T06:59:43.789Z,16.65
2022-08-19T07:00:45.788Z,15.80
2022-08-19T07:01:51.953Z,16.35
2022-08-19T07:02:58.685Z,16.65
2022-08-19T07:04:04.054Z,16.42
2022-08-19T07:05:08.256Z,16.80
2022-08-19T07:06:39.402Z,17.70
2022-08-19T07:07:37.097Z,16.67
2022-08-19T07:08:41.810Z,17.65
2022-08-19T07:09:58.606Z,16.70
2022-08-19T07:11:04.092Z,17.85
2022-08-19T07:12:14.198Z,17.52
2022-08-19T07:13:16.677Z,17.30
2022-08-19T07:14:22.292Z,17.58
2022-08-19T07:15:25.613Z,16.77
2022-08-19T07:16:29.740Z,16.85
2022-08-19T07:17:34.603Z,17.13
2022-08-19T07:18:37.537Z,17.23
2022-08-19T07:19:42.187Z,17.58
2022-08-19T07:20:44.234Z,17.23
2022-08-19T07:21:48.833Z,16.48
2022-08-19T07:22:51.133Z,18.05
2022-08-19T07:23:54.146Z,16.27
2022-08-19T07:24:57.108Z,16.48
2022-08-19T07:25:59.230Z,16.05
2022-08-19T07:27:10.395Z,15.57
2022-08-19T07:28:18.989Z,17.10
2022-08-19T07:29:28.558Z,15.10
2022-08-19T07:30:32.459Z,17.10
2022-08-19T07:31:38.155Z,15.57
2022-08-19T07:32:40.642Z,16.55
2022-08-19T07:33:44.095Z,16.98
2022-08-19T07:34:47.329Z,16.58
2022-08-19T07:35:50.741Z,16.48
2022-08-19T07:36:55.020Z,16.08
2022-08-19T07:37:57.053Z,16.30
2022-08-19T07:39:01.771Z,16.63
2022-08-19T07:40:04.956Z,17.95
2022-08-19T07:41:09.260Z,16.10
2022-08-19T07:42:13.273Z,16.73
2022-08-19T07:43:17.789Z,14.70
2022-08-19T07:44:22.458Z,16.38
2022-08-19T07:45:24.757Z,15.98
2022-08-19T07:46:29.220Z,15.13
2022-08-19T07:47:50.024Z,14.90
2022-08-19T07:48:54.451Z,15.25
2022-08-19T07:49:56.494Z,15.10
2022-08-19T07:51:02.651Z,15.20
2022-08-19T07:52:09.045Z,15.38
2022-08-19T07:53:12.750Z,15.80
2022-08-19T07:54:15.873Z,15.27
2022-08-19T07:55:41.794Z,16.75
2022-08-19T07:56:44.540Z,15.75
2022-08-19T07:57:46.555Z,14.40
2022-08-19T07:58:51.555Z,14.85
2022-08-19T07:59:53.566Z,15.70
2022-08-19T08:00:56.665Z,14.50
2022-08-19T08:02:01.422Z,15.18
2022-08-19T08:03:04.486Z,15.32
2022-08-19T08:04:26.116Z,14.93
2022-08-19T08:05:46.444Z,13.35
2022-08-19T08:07:07.359Z,14.25
2022-08-19T08:08:43.847Z,15.13
2022-08-19T08:09:49.550Z,14.90
2022-08-19T08:10:54.657Z,14.27
2022-08-19T08:12:05.167Z,14.68
2022-08-19T08:13:21.522Z,15.80
2022-08-19T08:14:29.601Z,15.25
2022-08-19T08:15:42.741Z,16.17
2022-08-19T08:16:47.174Z,15.02
2022-08-19T08:17:51.882Z,15.13
2022-08-19T08:18:53.901Z,15.25
2022-08-19T08:19:58.413Z,14.35
2022-08-19T08:21:00.631Z,14.98
2022-08-19T08:22:06.805Z,15.35
2022-08-19T08:23:25.686Z,15.40
2022-08-19T08:24:31.535Z,14.88
2022-08-19T08:25:34.558Z,14.75
2022-08-19T08:26:38.536Z,15.55
2022-08-19T08:27:53.680Z,15.80
2022-08-19T08:28:58.250Z,15.95
2022-08-19T08:30:02.829Z,14.43
2022-08-19T08:31:09.670Z,15.38
2022-08-19T08:32:14.008Z,14.32
2022-08-19T08:33:30.154Z,14.18
2022-08-19T08:34:38.221Z,14.70
2022-08-19T08:35:43.795Z,15.43
2022-08-19T08:36:47.923Z,15.35
2022-08-19T08:37:54.783Z,15.40
2022-08-19T08:40:11.359Z,14.80
2022-08-19T08:41:28.807Z,15.52
2022-08-19T08:42:37.423Z,15.30
2022-08-19T08:43:44.507Z,15.63
2022-08-19T08:46:05.636Z,14.30
2022-08-19T08:47:16.084Z,14.20
2022-08-19T08:48:25.202Z,14.20
2022-08-19T08:49:43.781Z,12.57
2022-08-19T08:50:49.390Z,14.13
2022-08-19T08:52:00.839Z,14.88
2022-08-19T08:53:06.219Z,14.45
2022-08-19T08:54:12.949Z,14.25
2022-08-19T08:55:26.348Z,14.43
2022-08-19T08:57:41.091Z,13.68
2022-08-19T08:58:54.783Z,13.00
2022-08-19T09:00:00.530Z,14.55
2022-08-19T09:01:04.165Z,13.55
2022-08-19T09:02:06.372Z,13.48
2022-08-19T09:03:16.318Z,13.93
2022-08-19T09:04:23.836Z,14.57
2022-08-19T09:05:42.147Z,14.88
2022-08-19T09:06:56.937Z,15.00
2022-08-19T09:08:05.968Z,13.75
2022-08-19T09:09:17.853Z,14.82
2022-08-19T09:10:29.420Z,14.98
2022-08-19T09:11:49.582Z,15.93
2022-08-19T09:13:03.214Z,15.13
2022-08-19T09:14:47.469Z,14.30
2022-08-19T09:15:51.352Z,14.23
2022-08-19T09:16:53.340Z,15.27
2022-08-19T09:17:56.378Z,15.20
2022-08-19T09:19:03.030Z,14.50
2022-08-19T09:20:16.025Z,14.90
2022-08-19T09:21:20.896Z,13.68
2022-08-19T09:22:27.793Z,14.13
2022-08-19T09:23:30.854Z,15.25
2022-08-19T09:24:32.864Z,13.75
2022-08-19T09:25:36.402Z,12.90
2022-08-19T09:26:47.864Z,13.80
2022-08-19T09:28:02.851Z,14.18
2022-08-19T09:29:06.118Z,13.98
2022-08-19T09:30:12.442Z,13.30
2022-08-19T09:31:18.041Z,12.30
2022-08-19T09:32:26.229Z,13.98
2022-08-19T09:33:30.114Z,12.82
2022-08-19T09:34:37.866Z,13.52
2022-08-19T09:35:50.176Z,14.02
2022-08-19T09:36:59.162Z,13.30
2022-08-19T09:38:01.428Z,13.02
2022-08-19T09:39:15.988Z,13.18
2022-08-19T09:40:21.136Z,13.73
2022-08-19T09:41:28.718Z,11.48
2022-08-19T09:42:35.388Z,12.75
2022-08-19T09:43:44.395Z,12.20
2022-08-19T09:44:49.518Z,13.75
2022-08-19T09:45:51.492Z,13.00
2022-08-19T09:46:54.466Z,13.07
2022-08-19T09:47:57.858Z,12.38
2022-08-19T09:49:06.190Z,11.77
2022-08-19T09:50:11.817Z,12.25
2022-08-19T09:51:22.719Z,11.43
2022-08-19T09:52:25.445Z,11.30
2022-08-19T09:53:35.664Z,11.88
2022-08-19T09:54:39.782Z,11.02
2022-08-19T09:55:47.471Z,10.65
2022-08-19T09:56:49.518Z,11.75
2022-08-19T09:57:55.476Z,11.65
2022-08-19T09:58:59.424Z,10.55
2022-08-19T10:00:03.129Z,12.15
2022-08-19T10:01:06.557Z,11.70
2022-08-19T10:02:11.338Z,11.75
2022-08-19T10:03:13.406Z,10.95
2022-08-19T10:04:20.445Z,10.35
2022-08-19T10:05:42.693Z,10.13
2022-08-19T10:06:48.625Z,11.07
2022-08-19T10:07:56.851Z,10.95
2022-08-19T10:09:00.007Z,10.40
2022-08-19T10:10:02.050Z,10.90
2022-08-19T10:11:27.879Z,10.38
2022-08-19T10:12:29.457Z,11.52
2022-08-19T10:13:33.073Z,11.27
2022-08-19T10:14:36.610Z,10.65
2022-08-19T10:15:47.828Z,11.13
2022-08-19T10:16:52.936Z,10.13
2022-08-19T10:17:55.362Z,10.32
2022-08-19T10:18:59.339Z,10.43
2022-08-19T10:20:01.569Z,10.45
2022-08-19T10:21:11.596Z,9.55
2022-08-19T10:22:16.481Z,9.18
2022-08-19T10:23:20.067Z,10.93
2022-08-19T10:24:25.323Z,9.75
2022-08-19T10:25:27.829Z,9.20
2022-08-19T10:26:33.409Z,10.18
2022-08-19T10:27:35.415Z,9.63
2022-08-19T10:28:39.177Z,10.05
2022-08-19T10:29:46.286Z,9.75
2022-08-19T10:30:48.603Z,10.30
2022-08-19T10:32:01.160Z,10.05
2022-08-19T10:33:08.570Z,10.35
2022-08-19T10:34:27.122Z,10.10
2022-08-19T10:35:30.721Z,9.50
2022-08-19T10:36:52.302Z,9.85
2022-08-19T10:38:02.462Z,9.40
2022-08-19T10:39:09.508Z,9.70
2022-08-19T10:40:12.452Z,8.75
2022-08-19T10:41:17.641Z,10.15
2022-08-19T10:42:19.820Z,11.25
2022-08-19T10:43:22.938Z,9.35
2022-08-19T10:44:31.928Z,10.10
2022-08-19T10:45:35.757Z,10.85
2022-08-19T10:46:44.261Z,10.30
2022-08-19T10:47:49.090Z,9.57
2022-08-19T10:48:51.497Z,8.27
2022-08-19T10:50:13.610Z,9.52
2022-08-19T10:51:34.594Z,9.82
2022-08-19T10:52:39.068Z,9.55
2022-08-19T10:53:42.554Z,9.38
2022-08-19T10:55:08.121Z,8.73
2022-08-19T10:56:29.337Z,9.85
2022-08-19T10:57:52.269Z,10.02
2022-08-19T10:58:57.716Z,9.10
2022-08-19T10:59:59.886Z,11.02
2022-08-19T11:01:03.070Z,10.93
2022-08-19T11:02:08.018Z,10.48
2022-08-19T11:03:10.073Z,12.95
2022-08-19T11:04:14.516Z,11.48
2022-08-19T11:05:18.034Z,10.52
2022-08-19T11:06:22.343Z,10.25
2022-08-19T11:07:24.956Z,10.95
2022-08-19T11:08:27.957Z,11.75
2022-08-19T11:09:34.379Z,9.90
2022-08-19T11:10:37.573Z,11.73
2022-08-19T11:11:41.667Z,11.73
2022-08-19T11:12:44.645Z,11.02
2022-08-19T11:13:46.841Z,11.82
2022-08-19T11:14:51.181Z,12.13
2022-08-19T11:16:06.498Z,10.27
2022-08-19T11:17:12.133Z,9.88
2022-08-19T11:18:14.373Z,11.73
2022-08-19T11:19:20.006Z,11.57
2022-08-19T11:20:21.984Z,11.75
2022-08-19T11:21:28.236Z,11.43
2022-08-19T11:22:36.745Z,11.73
2022-08-19T11:23:44.249Z,12.57
2022-08-19T11:24:48.585Z,11.60
2022-08-19T11:25:50.986Z,11.45
2022-08-19T11:26:58.549Z,12.23
2022-08-19T11:28:00.541Z,11.82
2022-08-19T11:29:05.019Z,11.57
2022-08-19T11:30:12.726Z,12.05
2022-08-19T11:31:17.432Z,11.15
2022-08-19T11:32:20.426Z,12.25
2022-08-19T11:33:22.453Z,11.65
2022-08-19T11:34:28.530Z,12.50
2022-08-19T11:35:31.587Z,12.35
2022-08-19T11:36:34.184Z,11.75
2022-08-19T11:37:39.021Z,13.15
2022-08-19T11:38:41.049Z,13.45
2022-08-19T11:39:44.071Z,13.52
2022-08-19T11:40:57.927Z,12.85
2022-08-19T11:42:02.614Z,12.82
2022-08-19T11:43:05.362Z,13.50
2022-08-19T11:44:09.376Z,12.80
2022-08-19T11:45:11.663Z,13.43
2022-08-19T11:46:16.926Z,13.30
2022-08-19T11:47:18.995Z,14.15
2022-08-19T11:48:23.345Z,15.00
2022-08-19T11:49:26.346Z,13.88
2022-08-19T11:50:28.443Z,15.02
2022-08-19T11:51:31.829Z,15.35
2022-08-19T11:52:33.851Z,15.80
2022-08-19T11:53:37.514Z,15.93
2022-08-19T11:54:39.517Z,15.20
2022-08-19T11:55:44.312Z,15.60
2022-08-19T11:56:49.031Z,15.48
2022-08-19T11:57:52.174Z,17.52
2022-08-19T11:58:54.982Z,15.85
2022-08-19T11:59:58.017Z,16.98
2022-08-19T12:01:00.000Z,16.10
2022-08-19T12:02:02.982Z,17.30
2022-08-19T12:03:05.054Z,17.73
2022-08-19T12:04:09.678Z,17.65
2022-08-19T12:05:13.151Z,18.92
2022-08-19T12:06:18.522Z,18.35
2022-08-19T12:07:20.582Z,17.63
2022-08-19T12:08:23.561Z,17.13
2022-08-19T12:09:25.597Z,17.80
2022-08-19T12:10:28.642Z,18.90
2022-08-19T12:11:31.255Z,18.70
2022-08-19T12:12:43.610Z,18.35
2022-08-19T12:13:47.097Z,17.10
2022-08-19T12:14:51.697Z,17.52
2022-08-19T12:15:54.179Z,18.13
2022-08-19T12:16:57.146Z,19.15
2022-08-19T12:17:59.153Z,19.23
2022-08-19T12:19:05.116Z,18.92
2022-08-19T12:20:11.364Z,17.80
2022-08-19T12:21:14.689Z,18.63
2022-08-19T12:22:17.697Z,20.10
2022-08-19T12:23:20.036Z,19.45
2022-08-19T12:24:24.398Z,20.92
2022-08-19T12:25:26.578Z,19.55
2022-08-19T12:26:32.298Z,20.48
2022-08-19T12:27:40.712Z,20.80
2022-08-19T12:28:46.895Z,21.00
2022-08-19T12:29:49.617Z,20.05
2022-08-19T12:30:53.053Z,19.73
2022-08-19T12:31:55.362Z,20.05
2022-08-19T12:32:58.412Z,17.85
2022-08-19T12:34:03.309Z,18.05
2022-08-19T12:35:07.526Z,17.48
2022-08-19T12:36:13.333Z,18.50
2022-08-19T12:37:17.640Z,18.15
2022-08-19T12:38:19.828Z,17.50
2022-08-19T12:39:22.835Z,17.60
2022-08-19T12:40:26.502Z,17.52
2022-08-19T12:41:29.903Z,17.42
2022-08-19T12:42:31.893Z,18.30
2022-08-19T12:43:35.636Z,18.05
2022-08-19T12:44:41.612Z,19.70
2022-08-19T12:45:46.040Z,19.10
2022-08-19T12:46:49.992Z,19.23
2022-08-19T12:47:57.042Z,19.90
2022-08-19T12:48:59.238Z,19.85
2022-08-19T12:50:09.565Z,20.60
2022-08-19T12:51:13.503Z,19.35
2022-08-19T12:52:23.038Z,19.90
2022-08-19T12:53:25.938Z,20.60
2022-08-19T12:54:29.009Z,20.20
2022-08-19T12:55:32.713Z,20.70
2022-08-19T12:56:34.766Z,20.77
2022-08-19T12:57:37.822Z,19.35
2022-08-19T12:58:40.366Z,21.35
2022-08-19T12:59:44.709Z,20.83
2022-08-19T13:00:47.147Z,19.50
2022-08-19T13:01:50.149Z,19.88
2022-08-19T13:02:53.394Z,20.73
2022-08-19T13:03:56.515Z,21.50
2022-08-19T13:04:59.481Z,18.95
2022-08-19T13:06:02.508Z,20.35
2022-08-19T13:07:04.934Z,20.08
2022-08-19T13:08:07.970Z,19.48
2022-08-19T13:09:10.386Z,19.23
2022-08-19T13:10:16.301Z,19.42
2022-08-19T13:11:20.961Z,21.02
2022-08-19T13:12:25.262Z,20.25
2022-08-19T13:13:27.614Z,17.92
2022-08-19T13:14:32.877Z,19.73
2022-08-19T13:15:41.056Z,21.23
2022-08-19T13:16:44.110Z,18.70
2022-08-19T13:17:46.149Z,19.63
2022-08-19T13:18:50.313Z,19.23
2022-08-19T13:19:52.452Z,19.42
2022-08-19T13:20:55.428Z,19.38
2022-08-19T13:22:00.150Z,20.45
2022-08-19T13:23:03.610Z,19.90
2022-08-19T13:24:05.907Z,19.33
2022-08-19T13:25:10.370Z,20.27
2022-08-19T13:26:13.435Z,17.20
2022-08-19T13:27:16.735Z,19.30
2022-08-19T13:28:18.749Z,18.20
2022-08-19T13:29:40.573Z,19.50
2022-08-19T13:31:07.812Z,18.25
2022-08-19T13:32:28.390Z,16.75
2022-08-19T13:33:31.382Z,17.15
2022-08-19T13:34:36.476Z,17.85
2022-08-19T13:35:39.920Z,17.27
2022-08-19T13:36:42.082Z,17.63
2022-08-19T13:37:46.316Z,17.90
2022-08-19T13:38:48.349Z,18.83
2022-08-19T13:39:51.390Z,16.92
2022-08-19T13:40:54.981Z,17.63
2022-08-19T13:41:58.534Z,17.55
2022-08-19T13:43:02.579Z,17.77
2022-08-19T13:44:21.515Z,18.50
2022-08-19T13:45:25.632Z,17.58
2022-08-19T13:46:31.414Z,18.23
2022-08-19T13:47:35.327Z,16.73
2022-08-19T13:48:38.325Z,17.65
2022-08-19T13:49:40.993Z,19.02
2022-08-19T13:50:48.182Z,17.40
2022-08-19T13:51:50.195Z,17.45
2022-08-19T13:52:53.721Z,17.83
2022-08-19T13:53:56.281Z,18.83
2022-08-19T13:54:59.590Z,18.85
2022-08-19T13:56:01.623Z,18.17
2022-08-19T13:57:05.338Z,19.15
2022-08-19T13:58:07.618Z,18.60
2022-08-19T13:59:11.073Z,17.85
2022-08-19T14:00:16.249Z,18.27
2022-08-19T14:01:22.348Z,17.75
2022-08-19T14:02:28.109Z,17.60
2022-08-19T14:03:31.157Z,16.85
2022-08-19T14:04:33.297Z,16.40
2022-08-19T14:05:36.821Z,17.70
2022-08-19T14:06:39.774Z,18.27
2022-08-19T14:07:42.092Z,15.73
2022-08-19T14:08:46.439Z,17.35